Time;durP1;ratioP1;P1;durP2;ratioP2;P2;SDS_P1;SDS_P2;PMS_P1;PMS_P2;Temp;Humidity;BMP_temperature;BMP_pressure;BME280_temperature;BME280_humidity;BME280_pressure;Samples;Min_cycle;Max_cycle;Signal;HPM_P1;HPM_P2
2021/03/21 00:00:42;;;;;;;4.57;2.40;;;;;;;;;;5052330;28;20473;-68
2021/03/21 00:03:08;;;;;;;6.25;2.40;;;;;;;;;;5052230;28;20029;-69
2021/03/21 00:05:35;;;;;;;5.55;2.67;;;;;;;;;;5051783;28;20021;-68
2021/03/21 00:08:05;;;;;;;4.00;2.80;;;;;;;;;;5052048;28;20520;-68
2021/03/21 00:10:32;;;;;;;6.00;3.05;;;;;;;;;;5052030;28;20022;-68
2021/03/21 00:12:59;;;;;;;4.05;2.00;;;;;;;;;;5051721;28;20388;-70
2021/03/21 00:15:25;;;;;;;5.47;2.63;;;;;;;;;;5051075;28;20013;-68
2021/03/21 00:17:52;;;;;;;6.18;2.50;;;;;;;;;;5052239;28;20027;-68
2021/03/21 00:20:19;;;;;;;5.75;2.58;;;;;;;;;;5050346;28;20031;-68
2021/03/21 00:22:45;;;;;;;7.53;2.33;;;;;;;;;;5052026;28;20051;-68
2021/03/21 00:25:15;;;;;;;7.00;2.28;;;;;;;;;;5052003;28;20087;-68
2021/03/21 00:27:41;;;;;;;6.55;1.95;;;;;;;;;;5051577;28;20097;-68
2021/03/21 00:30:09;;;;;;;3.80;1.58;;;;;;;;;;5051939;28;20106;-68
2021/03/21 00:32:35;;;;;;;3.78;1.45;;;;;;;;;;5052168;28;20033;-69
2021/03/21 00:35:01;;;;;;;4.53;1.95;;;;;;;;;;5050816;28;20385;-68
2021/03/21 00:37:27;;;;;;;4.07;1.65;;;;;;;;;;5051855;28;20033;-69
2021/03/21 00:39:54;;;;;;;2.92;1.60;;;;;;;;;;5051540;28;20029;-68
2021/03/21 00:42:20;;;;;;;5.30;1.90;;;;;;;;;;5052164;28;20059;-68
2021/03/21 00:44:46;;;;;;;4.30;1.73;;;;;;;;;;5052015;28;20017;-68
2021/03/21 00:47:12;;;;;;;4.78;2.20;;;;;;;;;;5051617;28;20393;-69
2021/03/21 00:49:38;;;;;;;2.33;1.50;;;;;;;;;;5051844;28;20540;-69
2021/03/21 00:52:05;;;;;;;2.33;1.42;;;;;;;;;;5051509;28;20045;-66
2021/03/21 00:54:31;;;;;;;3.95;1.88;;;;;;;;;;5051411;28;20029;-68
2021/03/21 00:56:57;;;;;;;1.77;1.10;;;;;;;;;;5050416;28;20071;-67
2021/03/21 00:59:23;;;;;;;4.10;1.52;;;;;;;;;;5051581;28;20493;-68
2021/03/21 01:01:49;;;;;;;2.10;1.20;;;;;;;;;;5051191;28;20421;-67
2021/03/21 01:04:16;;;;;;;2.22;1.50;;;;;;;;;;5051586;28;20071;-67
2021/03/21 01:06:42;;;;;;;3.90;2.00;;;;;;;;;;5051699;28;20418;-69
2021/03/21 01:09:09;;;;;;;2.28;1.35;;;;;;;;;;5051345;28;20025;-69
2021/03/21 01:11:37;;;;;;;3.22;1.58;;;;;;;;;;5051665;28;20092;-68
2021/03/21 01:14:03;;;;;;;2.42;1.27;;;;;;;;;;5051797;28;20040;-68
2021/03/21 01:16:33;;;;;;;2.33;1.20;;;;;;;;;;5052830;28;20412;-68
2021/03/21 01:18:59;;;;;;;2.90;1.50;;;;;;;;;;5055057;28;20481;-69
2021/03/21 01:21:27;;;;;;;2.92;1.58;;;;;;;;;;5054885;28;20029;-68
2021/03/21 01:23:54;;;;;;;3.05;1.20;;;;;;;;;;5054537;28;20026;-68
2021/03/21 01:26:22;;;;;;;3.97;1.77;;;;;;;;;;5054911;28;20032;-68
2021/03/21 01:28:48;;;;;;;4.65;1.73;;;;;;;;;;5054846;28;20033;-68
2021/03/21 01:31:17;;;;;;;1.52;1.20;;;;;;;;;;5054375;28;20096;-68
2021/03/21 01:33:43;;;;;;;2.75;1.38;;;;;;;;;;5054678;28;20231;-68
2021/03/21 01:36:13;;;;;;;2.63;1.17;;;;;;;;;;5054626;28;20080;-68
2021/03/21 01:38:39;;;;;;;2.35;1.33;;;;;;;;;;5054713;28;20315;-68
2021/03/21 01:41:07;;;;;;;3.28;1.42;;;;;;;;;;5054591;28;20063;-68
2021/03/21 01:43:38;;;;;;;2.30;1.33;;;;;;;;;;5054218;28;20033;-68
2021/03/21 01:46:05;;;;;;;3.65;1.48;;;;;;;;;;5054546;28;20025;-68
2021/03/21 01:48:31;;;;;;;2.65;1.20;;;;;;;;;;5054444;28;20090;-68
2021/03/21 01:50:59;;;;;;;2.97;1.48;;;;;;;;;;5053902;28;20099;-68
2021/03/21 01:53:27;;;;;;;4.35;2.00;;;;;;;;;;5054485;28;20033;-69
2021/03/21 01:55:54;;;;;;;7.18;2.10;;;;;;;;;;5053388;28;20021;-68
2021/03/21 01:58:22;;;;;;;4.75;1.60;;;;;;;;;;5052677;28;20025;-69
2021/03/21 02:00:49;;;;;;;4.50;1.95;;;;;;;;;;5054293;28;20016;-68
2021/03/21 02:03:16;;;;;;;3.78;2.03;;;;;;;;;;5054190;28;20388;-68
2021/03/21 02:05:43;;;;;;;3.85;1.95;;;;;;;;;;5053837;28;20028;-68
2021/03/21 02:08:09;;;;;;;5.82;1.90;;;;;;;;;;5054110;28;20083;-69
2021/03/21 02:10:50;;;;;;;3.58;1.65;;;;;;;;;;5054180;28;20043;-68
2021/03/21 02:13:24;;;;;;;3.65;1.85;;;;;;;;;;5053739;28;20041;-68
2021/03/21 02:16:06;;;;;;;4.10;1.80;;;;;;;;;;5054186;28;20021;-68
2021/03/21 02:18:32;;;;;;;3.33;1.80;;;;;;;;;;5053501;28;20017;-68
2021/03/21 02:21:12;;;;;;;3.70;2.05;;;;;;;;;;5053924;28;20446;-68
2021/03/21 02:23:57;;;;;;;5.07;2.20;;;;;;;;;;5053916;28;20021;-68
2021/03/21 02:26:41;;;;;;;4.07;1.65;;;;;;;;;;5053369;28;20492;-68
2021/03/21 02:29:28;;;;;;;4.28;1.80;;;;;;;;;;5053683;28;20071;-68
2021/03/21 02:32:09;;;;;;;4.38;1.55;;;;;;;;;;5053582;28;20031;-68
2021/03/21 02:34:41;;;;;;;5.05;1.63;;;;;;;;;;5054160;28;20021;-68
2021/03/21 02:37:12;;;;;;;1.92;1.30;;;;;;;;;;5053661;28;20082;-68
2021/03/21 02:39:46;;;;;;;2.72;1.35;;;;;;;;;;5053170;28;20025;-68
2021/03/21 02:42:16;;;;;;;3.90;1.75;;;;;;;;;;5053482;28;20424;-69
2021/03/21 02:44:46;;;;;;;3.63;1.38;;;;;;;;;;5053340;28;20100;-68
2021/03/21 02:47:22;;;;;;;2.97;1.70;;;;;;;;;;5051680;28;20025;-68
2021/03/21 02:49:50;;;;;;;3.58;1.60;;;;;;;;;;5051970;28;20033;-68
2021/03/21 02:52:19;;;;;;;5.70;1.90;;;;;;;;;;5051776;28;20048;-68
2021/03/21 02:54:52;;;;;;;4.25;2.10;;;;;;;;;;5052976;28;20477;-68
2021/03/21 02:57:20;;;;;;;4.78;1.90;;;;;;;;;;5053198;28;20021;-68
2021/03/21 02:59:52;;;;;;;3.08;1.80;;;;;;;;;;5051915;28;20053;-68
2021/03/21 03:02:22;;;;;;;4.32;1.95;;;;;;;;;;5051468;28;20058;-68
2021/03/21 03:04:54;;;;;;;3.15;1.73;;;;;;;;;;5053248;28;20036;-68
2021/03/21 03:07:24;;;;;;;5.55;1.75;;;;;;;;;;5052976;28;20021;-68
2021/03/21 03:09:58;;;;;;;3.17;1.67;;;;;;;;;;5052965;28;20040;-68
2021/03/21 03:12:31;;;;;;;2.53;1.42;;;;;;;;;;5052997;28;20071;-68
2021/03/21 03:14:57;;;;;;;2.73;1.57;;;;;;;;;;5052602;28;20025;-68
2021/03/21 03:17:40;;;;;;;1.63;1.30;;;;;;;;;;5052865;28;20679;-68
2021/03/21 03:20:13;;;;;;;3.90;2.00;;;;;;;;;;5052808;28;20385;-68
2021/03/21 03:22:39;;;;;;;4.15;1.75;;;;;;;;;;5052546;28;20446;-68
2021/03/21 03:25:20;;;;;;;3.83;1.88;;;;;;;;;;5052787;28;20014;-68
2021/03/21 03:28:04;;;;;;;4.38;2.20;;;;;;;;;;5052696;28;20029;-68
2021/03/21 03:30:54;;;;;;;6.30;3.22;;;;;;;;;;5052252;28;20027;-68
2021/03/21 03:33:20;;;;;;;4.90;2.00;;;;;;;;;;5042378;28;20115;-68
2021/03/21 03:35:46;;;;;;;2.85;1.70;;;;;;;;;;5052308;28;20031;-68
2021/03/21 03:38:13;;;;;;;3.28;1.60;;;;;;;;;;5051003;28;20055;-68
2021/03/21 03:40:40;;;;;;;3.72;1.75;;;;;;;;;;5052337;28;20078;-68
2021/03/21 03:43:07;;;;;;;2.88;1.60;;;;;;;;;;5052138;28;20021;-68
2021/03/21 03:45:36;;;;;;;2.15;1.20;;;;;;;;;;5051085;28;20047;-68
2021/03/21 03:48:11;;;;;;;3.92;1.80;;;;;;;;;;5052370;28;20056;-68
2021/03/21 03:50:53;;;;;;;3.53;1.52;;;;;;;;;;5051634;28;20032;-67
2021/03/21 03:53:37;;;;;;;6.18;1.95;;;;;;;;;;5052399;28;20546;-68
2021/03/21 03:56:09;;;;;;;4.57;1.85;;;;;;;;;;5052340;28;20064;-68
2021/03/21 03:58:39;;;;;;;2.10;1.38;;;;;;;;;;5051968;28;20380;-68
2021/03/21 04:01:08;;;;;;;2.58;1.30;;;;;;;;;;5052207;28;20025;-68
2021/03/21 04:03:48;;;;;;;1.35;0.90;;;;;;;;;;5052178;28;20021;-68
2021/03/21 04:06:35;;;;;;;2.72;1.60;;;;;;;;;;5050871;28;20180;-68
2021/03/21 04:09:13;;;;;;;2.60;1.20;;;;;;;;;;5052127;28;20025;-68
2021/03/21 04:11:43;;;;;;;4.38;1.88;;;;;;;;;;5051820;28;20056;-68
2021/03/21 04:14:09;;;;;;;1.75;1.30;;;;;;;;;;5052171;28;20033;-68
2021/03/21 04:16:39;;;;;;;3.22;1.42;;;;;;;;;;5052055;28;20071;-68
2021/03/21 04:19:07;;;;;;;7.75;2.10;;;;;;;;;;5051565;28;20025;-68
2021/03/21 04:21:33;;;;;;;4.65;2.00;;;;;;;;;;5051981;28;20021;-68
2021/03/21 04:24:16;;;;;;;3.90;1.90;;;;;;;;;;5051993;28;20244;-68
2021/03/21 04:27:14;;;;;;;3.42;1.67;;;;;;;;;;5050258;28;20029;-68
2021/03/21 04:29:44;;;;;;;5.25;2.13;;;;;;;;;;5039759;28;20037;-68
2021/03/21 04:32:16;;;;;;;4.25;2.40;;;;;;;;;;5050275;28;20029;-68
2021/03/21 04:34:45;;;;;;;6.22;2.85;;;;;;;;;;5052097;28;20025;-68
2021/03/21 04:37:11;;;;;;;4.40;2.38;;;;;;;;;;5051845;28;20376;-68
2021/03/21 04:39:38;;;;;;;4.95;1.92;;;;;;;;;;5051315;28;20021;-68
2021/03/21 04:42:07;;;;;;;4.00;2.10;;;;;;;;;;5051822;28;20025;-68
2021/03/21 04:44:43;;;;;;;5.15;2.60;;;;;;;;;;5051746;28;20029;-68
2021/03/21 04:47:13;;;;;;;8.25;3.30;;;;;;;;;;5051295;28;20025;-68
2021/03/21 04:49:39;;;;;;;7.07;3.35;;;;;;;;;;5051744;28;20428;-68
2021/03/21 04:52:24;;;;;;;6.80;2.50;;;;;;;;;;5052959;28;20505;-68
2021/03/21 04:54:51;;;;;;;5.90;2.80;;;;;;;;;;5054050;28;20076;-68
2021/03/21 04:57:20;;;;;;;4.60;2.50;;;;;;;;;;5055533;28;20099;-68
2021/03/21 04:59:46;;;;;;;4.70;2.42;;;;;;;;;;5054429;28;20384;-68
2021/03/21 05:02:12;;;;;;;4.38;1.90;;;;;;;;;;5053686;28;20392;-68
2021/03/21 05:04:43;;;;;;;4.60;1.80;;;;;;;;;;5055472;28;20043;-68
2021/03/21 05:07:21;;;;;;;3.25;1.75;;;;;;;;;;5054977;28;20020;-68
2021/03/21 05:09:49;;;;;;;2.88;1.20;;;;;;;;;;5053920;28;20051;-68
2021/03/21 05:12:34;;;;;;;4.07;1.98;;;;;;;;;;5055262;28;20024;-68
2021/03/21 05:15:04;;;;;;;5.10;1.98;;;;;;;;;;5054906;28;20025;-68
2021/03/21 05:17:39;;;;;;;3.80;2.13;;;;;;;;;;5055360;28;20468;-68
2021/03/21 05:20:06;;;;;;;4.03;2.08;;;;;;;;;;5053796;28;20025;-68
2021/03/21 05:22:35;;;;;;;4.30;2.30;;;;;;;;;;5053276;28;20389;-69
2021/03/21 05:25:05;;;;;;;4.75;2.85;;;;;;;;;;5055054;28;20496;-68
2021/03/21 05:27:39;;;;;;;5.35;2.80;;;;;;;;;;5054946;28;20029;-68
2021/03/21 05:30:08;;;;;;;5.95;3.05;;;;;;;;;;5054454;28;20473;-69
2021/03/21 05:32:35;;;;;;;4.57;2.10;;;;;;;;;;5053690;28;20039;-68
2021/03/21 05:35:01;;;;;;;4.60;2.42;;;;;;;;;;5054938;28;20032;-68
2021/03/21 05:37:47;;;;;;;7.28;3.30;;;;;;;;;;5054973;28;20029;-68
2021/03/21 05:40:27;;;;;;;6.75;2.58;;;;;;;;;;5054779;28;20025;-68
2021/03/21 05:42:53;;;;;;;6.95;3.03;;;;;;;;;;5054322;28;20138;-68
2021/03/21 05:45:22;;;;;;;5.53;2.88;;;;;;;;;;5054683;28;20017;-68
2021/03/21 05:47:52;;;;;;;6.47;3.20;;;;;;;;;;5054691;28;20025;-67
2021/03/21 05:50:21;;;;;;;7.65;3.28;;;;;;;;;;5054332;28;20025;-68
2021/03/21 05:52:47;;;;;;;7.68;3.03;;;;;;;;;;5054275;28;20524;-68
2021/03/21 05:55:19;;;;;;;6.85;3.40;;;;;;;;;;5054496;28;20111;-69
2021/03/21 05:57:49;;;;;;;5.13;3.03;;;;;;;;;;5052792;28;20031;-68
2021/03/21 06:00:24;;;;;;;6.57;3.10;;;;;;;;;;5054277;28;20619;-68
2021/03/21 06:02:50;;;;;;;5.45;2.72;;;;;;;;;;5053784;28;20025;-68
2021/03/21 06:05:35;;;;;;;8.07;4.10;;;;;;;;;;5053781;28;20021;-68
2021/03/21 06:08:14;;;;;;;9.63;5.00;;;;;;;;;;5053137;28;20028;-69
2021/03/21 06:10:59;;;;;;;6.95;3.38;;;;;;;;;;5054031;28;20489;-68
2021/03/21 06:13:34;;;;;;;6.82;3.08;;;;;;;;;;5052663;28;20039;-68
2021/03/21 06:16:19;;;;;;;10.18;4.72;;;;;;;;;;5052840;28;20021;-68
2021/03/21 06:18:54;;;;;;;16.45;8.65;;;;;;;;;;5053720;28;20027;-68
2021/03/21 06:21:33;;;;;;;16.83;8.52;;;;;;;;;;5053895;28;20041;-68
2021/03/21 06:24:05;;;;;;;13.15;6.78;;;;;;;;;;5053833;28;20362;-68
2021/03/21 06:26:37;;;;;;;14.07;8.20;;;;;;;;;;5052376;28;20048;-68
2021/03/21 06:29:33;;;;;;;13.80;7.03;;;;;;;;;;5052784;28;20079;-68
2021/03/21 06:32:17;;;;;;;12.80;6.80;;;;;;;;;;5048959;28;20087;-68
2021/03/21 06:34:48;;;;;;;15.07;8.32;;;;;;;;;;5053616;28;20047;-68
2021/03/21 06:37:17;;;;;;;17.80;8.95;;;;;;;;;;5053630;28;20413;-69
2021/03/21 06:40:01;;;;;;;22.33;12.73;;;;;;;;;;5051897;28;20436;-69
2021/03/21 06:42:46;;;;;;;16.67;8.73;;;;;;;;;;5052232;28;20021;-69
2021/03/21 06:45:22;;;;;;;12.95;6.43;;;;;;;;;;5053473;28;20491;-69
2021/03/21 06:47:50;;;;;;;11.30;7.18;;;;;;;;;;5053670;28;20025;-68
2021/03/21 06:50:29;;;;;;;13.15;8.23;;;;;;;;;;5052623;28;20029;-68
2021/03/21 06:53:08;;;;;;;10.82;5.85;;;;;;;;;;5052629;28;20056;-69
2021/03/21 06:55:34;;;;;;;14.93;8.45;;;;;;;;;;5053298;28;20025;-68
2021/03/21 06:58:00;;;;;;;16.05;9.02;;;;;;;;;;5053229;28;20029;-69
2021/03/21 07:00:44;;;;;;;13.90;7.68;;;;;;;;;;5052853;28;20021;-70
2021/03/21 07:03:11;;;;;;;16.35;9.77;;;;;;;;;;5051899;28;20025;-69
2021/03/21 07:05:46;;;;;;;15.68;8.07;;;;;;;;;;5052159;28;20389;-68
2021/03/21 07:08:18;;;;;;;13.80;7.35;;;;;;;;;;5052911;28;20020;-68
2021/03/21 07:10:44;;;;;;;13.00;6.93;;;;;;;;;;5053016;28;20025;-68
2021/03/21 07:13:29;;;;;;;13.18;7.32;;;;;;;;;;5052454;28;20059;-68
2021/03/21 07:15:55;;;;;;;16.17;8.65;;;;;;;;;;5053027;28;20515;-67
2021/03/21 07:18:40;;;;;;;14.07;8.80;;;;;;;;;;5052877;28;20029;-68
2021/03/21 07:21:18;;;;;;;14.52;8.27;;;;;;;;;;5052506;28;20109;-68
2021/03/21 07:23:58;;;;;;;12.38;7.10;;;;;;;;;;5053121;28;20013;-68
2021/03/21 07:26:27;;;;;;;19.25;9.75;;;;;;;;;;5053060;28;20078;-69
2021/03/21 07:29:05;;;;;;;18.70;11.48;;;;;;;;;;5051271;28;20059;-70
2021/03/21 07:31:37;;;;;;;18.77;10.45;;;;;;;;;;5051494;28;20032;-69
2021/03/21 07:34:20;;;;;;;18.47;9.67;;;;;;;;;;5051304;28;20500;-69
2021/03/21 07:36:59;;;;;;;13.20;7.50;;;;;;;;;;5052223;28;20021;-69
2021/03/21 07:39:25;;;;;;;18.13;9.60;;;;;;;;;;5052601;28;20261;-70
2021/03/21 07:42:00;;;;;;;16.40;8.52;;;;;;;;;;5050882;28;20021;-69
2021/03/21 07:44:26;;;;;;;12.88;6.88;;;;;;;;;;5051263;28;20075;-68
2021/03/21 07:46:56;;;;;;;14.30;8.45;;;;;;;;;;5052528;28;20074;-68
2021/03/21 07:49:39;;;;;;;14.18;7.45;;;;;;;;;;5052124;28;20101;-68
2021/03/21 07:52:24;;;;;;;20.20;11.75;;;;;;;;;;5050921;28;20048;-68
2021/03/21 07:54:56;;;;;;;20.25;12.18;;;;;;;;;;5052383;28;20035;-69
2021/03/21 07:57:31;;;;;;;24.20;13.60;;;;;;;;;;5052019;28;20071;-69
2021/03/21 08:00:00;;;;;;;26.00;14.55;;;;;;;;;;5052345;28;20098;-68
2021/03/21 08:02:28;;;;;;;24.75;12.88;;;;;;;;;;5051014;28;20082;-69
2021/03/21 08:05:02;;;;;;;23.92;12.40;;;;;;;;;;5050653;28;20028;-69
2021/03/21 08:07:36;;;;;;;16.17;8.90;;;;;;;;;;5052487;28;20079;-68
2021/03/21 08:10:14;;;;;;;23.70;13.10;;;;;;;;;;5052073;28;20027;-69
2021/03/21 08:12:45;;;;;;;17.25;9.93;;;;;;;;;;5052085;28;20029;-68
2021/03/21 08:15:22;;;;;;;27.00;14.27;;;;;;;;;;5052169;28;20033;-71
2021/03/21 08:18:00;;;;;;;26.13;13.88;;;;;;;;;;5051779;28;20563;-68
2021/03/21 08:20:29;;;;;;;23.80;12.50;;;;;;;;;;5050800;28;20062;-69
2021/03/21 08:23:11;;;;;;;23.13;12.90;;;;;;;;;;5052027;28;20036;-68
2021/03/21 08:25:37;;;;;;;19.73;10.23;;;;;;;;;;5053694;28;20028;-69
2021/03/21 08:28:04;;;;;;;18.25;10.27;;;;;;;;;;5055007;28;20075;-68
2021/03/21 08:30:49;;;;;;;26.05;15.07;;;;;;;;;;5056204;28;20031;-68
2021/03/21 08:33:30;;;;;;;18.73;11.40;;;;;;;;;;5055639;28;20037;-68
2021/03/21 08:36:19;;;;;;;13.18;7.55;;;;;;;;;;5056074;28;20025;-69
2021/03/21 08:39:01;;;;;;;32.53;21.17;;;;;;;;;;5052472;28;20489;-69
2021/03/21 08:41:29;;;;;;;25.33;15.98;;;;;;;;;;5055992;28;20021;-69
2021/03/21 08:43:59;;;;;;;29.50;17.08;;;;;;;;;;5055963;28;20021;-68
2021/03/21 08:46:26;;;;;;;18.98;10.82;;;;;;;;;;5055650;28;20029;-68
2021/03/21 08:49:06;;;;;;;19.02;11.43;;;;;;;;;;5055763;28;20481;-69
2021/03/21 08:51:39;;;;;;;14.80;10.02;;;;;;;;;;5055478;28;20064;-68
2021/03/21 08:54:05;;;;;;;;;;;;;;;;;;5055667;28;20037;-68
2021/03/21 08:56:38;;;;;;;30.90;15.52;;;;;;;;;;5055567;28;20334;-68
2021/03/21 08:59:08;;;;;;;28.20;18.63;;;;;;;;;;5054128;28;20083;-68
2021/03/21 09:01:34;;;;;;;18.15;10.57;;;;;;;;;;5054115;28;20033;-69
2021/03/21 09:04:11;;;;;;;18.83;10.57;;;;;;;;;;5055354;28;20075;-68
2021/03/21 09:06:39;;;;;;;22.95;13.30;;;;;;;;;;5055279;28;20428;-67
2021/03/21 09:09:37;;;;;;;28.33;16.13;;;;;;;;;;5053994;28;20083;-68
2021/03/21 09:12:18;;;;;;;30.92;15.73;;;;;;;;;;5047030;28;20584;-67
2021/03/21 09:14:44;;;;;;;24.42;14.55;;;;;;;;;;5054847;28;20041;-68
2021/03/21 09:17:22;;;;;;;17.40;10.35;;;;;;;;;;5055197;28;20029;-68
2021/03/21 09:19:50;;;;;;;20.63;13.05;;;;;;;;;;5055473;28;20025;-68
2021/03/21 09:22:35;;;;;;;36.15;22.17;;;;;;;;;;5054649;28;20373;-68
2021/03/21 09:25:08;;;;;;;28.92;15.82;;;;;;;;;;5055247;28;20025;-69
2021/03/21 09:27:37;;;;;;;35.13;20.13;;;;;;;;;;5054811;28;20410;-69
2021/03/21 09:30:24;;;;;;;27.15;14.18;;;;;;;;;;5053607;28;20117;-68
2021/03/21 09:33:01;;;;;;;19.65;11.57;;;;;;;;;;5054840;28;20439;-68
2021/03/21 09:35:45;;;;;;;20.40;10.68;;;;;;;;;;5054455;28;20143;-69
2021/03/21 09:38:19;;;;;;;22.98;13.77;;;;;;;;;;5053999;28;20075;-68
2021/03/21 09:40:50;;;;;;;28.55;16.15;;;;;;;;;;5053417;28;20064;-69
2021/03/21 09:43:20;;;;;;;22.48;14.68;;;;;;;;;;5053375;28;20031;-68
2021/03/21 09:45:49;;;;;;;31.48;17.58;;;;;;;;;;5054849;28;20017;-69
2021/03/21 09:48:22;;;;;;;20.88;13.52;;;;;;;;;;5053090;28;20028;-70
2021/03/21 09:50:48;;;;;;;25.10;14.00;;;;;;;;;;5054420;28;20024;-68
2021/03/21 09:53:14;;;;;;;12.82;6.55;;;;;;;;;;5053130;28;20067;-69
2021/03/21 09:55:44;;;;;;;10.57;5.38;;;;;;;;;;5053983;28;20037;-69
2021/03/21 09:58:13;;;;;;;12.60;6.35;;;;;;;;;;5053425;28;20079;-68
2021/03/21 10:00:40;;;;;;;16.60;11.73;;;;;;;;;;5053089;28;20021;-68
2021/03/21 10:03:11;;;;;;;22.33;13.55;;;;;;;;;;5053954;28;20063;-68
2021/03/21 10:05:37;;;;;;;30.73;20.67;;;;;;;;;;5054409;28;20041;-69
2021/03/21 10:08:15;;;;;;;20.42;12.27;;;;;;;;;;5054342;28;20021;-68
2021/03/21 10:10:45;;;;;;;25.25;16.45;;;;;;;;;;5053806;28;20104;-69
2021/03/21 10:13:27;;;;;;;13.10;8.43;;;;;;;;;;5052744;28;20033;-68
2021/03/21 10:16:19;;;;;;;15.80;9.02;;;;;;;;;;5054160;28;20172;-68
2021/03/21 10:18:56;;;;;;;29.98;17.92;;;;;;;;;;5045394;28;20037;-68
2021/03/21 10:21:25;;;;;;;22.08;11.85;;;;;;;;;;5052898;28;20025;-68
2021/03/21 10:23:57;;;;;;;22.05;14.07;;;;;;;;;;5053654;28;20052;-69
2021/03/21 10:26:24;;;;;;;16.65;11.30;;;;;;;;;;5052837;28;20104;-68
2021/03/21 10:29:01;;;;;;;10.70;5.68;;;;;;;;;;5053899;28;20115;-68
2021/03/21 10:31:29;;;;;;;6.57;3.05;;;;;;;;;;5053409;28;20009;-68
2021/03/21 10:34:04;;;;;;;11.57;6.40;;;;;;;;;;5053695;28;20112;-69
2021/03/21 10:36:43;;;;;;;10.68;6.07;;;;;;;;;;5053846;28;20508;-68
2021/03/21 10:39:11;;;;;;;17.58;8.52;;;;;;;;;;5053233;28;20051;-67
2021/03/21 10:42:10;;;;;;;19.33;10.70;;;;;;;;;;5053643;28;20021;-68
2021/03/21 10:44:36;;;;;;;17.10;10.40;;;;;;;;;;5030622;28;20045;-68
2021/03/21 10:47:05;;;;;;;18.67;11.30;;;;;;;;;;5053810;28;20104;-68
2021/03/21 10:49:48;;;;;;;18.00;11.02;;;;;;;;;;5053683;28;20097;-69
2021/03/21 10:52:21;;;;;;;22.17;14.20;;;;;;;;;;5052727;28;20405;-68
2021/03/21 10:54:48;;;;;;;15.32;9.70;;;;;;;;;;5053389;28;20036;-68
2021/03/21 10:57:24;;;;;;;18.58;11.63;;;;;;;;;;5053612;28;20067;-68
2021/03/21 11:00:09;;;;;;;14.80;9.73;;;;;;;;;;5053012;28;20025;-69
2021/03/21 11:02:36;;;;;;;16.83;9.25;;;;;;;;;;5053200;28;20059;-69
2021/03/21 11:05:04;;;;;;;21.30;12.52;;;;;;;;;;5051945;28;20424;-68
2021/03/21 11:07:31;;;;;;;16.58;11.63;;;;;;;;;;5052875;28;20032;-68
2021/03/21 11:09:59;;;;;;;18.58;11.90;;;;;;;;;;5051774;28;20017;-69
2021/03/21 11:12:33;;;;;;;12.52;7.30;;;;;;;;;;5053004;28;20033;-68
2021/03/21 11:15:14;;;;;;;12.25;6.88;;;;;;;;;;5051300;28;20029;-68
2021/03/21 11:17:41;;;;;;;15.88;8.45;;;;;;;;;;5053051;28;20100;-67
2021/03/21 11:20:22;;;;;;;29.92;15.45;;;;;;;;;;5052832;28;20021;-68
2021/03/21 11:22:48;;;;;;;26.83;15.13;;;;;;;;;;5051580;28;20459;-67
2021/03/21 11:25:15;;;;;;;21.88;14.15;;;;;;;;;;5051541;28;20025;-68
2021/03/21 11:27:48;;;;;;;23.20;15.05;;;;;;;;;;5052577;28;20025;-68
2021/03/21 11:30:21;;;;;;;19.90;12.48;;;;;;;;;;5052823;28;20148;-69
2021/03/21 11:32:48;;;;;;;30.05;18.02;;;;;;;;;;5051391;28;20025;-68
2021/03/21 11:35:16;;;;;;;36.70;22.33;;;;;;;;;;5050935;28;20043;-70
2021/03/21 11:37:44;;;;;;;46.20;28.55;;;;;;;;;;5052651;28;20025;-69
2021/03/21 11:40:21;;;;;;;43.17;26.52;;;;;;;;;;5052575;28;20025;-69
2021/03/21 11:42:48;;;;;;;30.33;19.75;;;;;;;;;;5050858;28;20489;-69
2021/03/21 11:45:32;;;;;;;26.17;16.77;;;;;;;;;;5052683;28;20025;-68
2021/03/21 11:48:11;;;;;;;24.02;15.52;;;;;;;;;;5052445;28;20318;-68
2021/03/21 11:50:40;;;;;;;42.33;30.15;;;;;;;;;;5052536;28;20146;-68
2021/03/21 11:53:08;;;;;;;30.50;19.80;;;;;;;;;;5052614;28;20033;-68
2021/03/21 11:55:39;;;;;;;24.25;13.70;;;;;;;;;;5051965;28;20059;-69
2021/03/21 11:58:14;;;;;;;24.92;13.93;;;;;;;;;;5052425;28;20021;-68
2021/03/21 12:00:43;;;;;;;31.88;20.33;;;;;;;;;;5052017;28;20374;-68
2021/03/21 12:03:18;;;;;;;42.28;27.40;;;;;;;;;;5051690;28;20079;-68
2021/03/21 12:05:45;;;;;;;35.15;21.13;;;;;;;;;;5052373;28;20021;-68
2021/03/21 12:08:14;;;;;;;31.02;17.33;;;;;;;;;;5052410;28;20101;-68
2021/03/21 12:10:42;;;;;;;46.22;27.73;;;;;;;;;;5051770;28;20071;-69
2021/03/21 12:13:27;;;;;;;54.25;32.83;;;;;;;;;;5052123;28;20488;-69
2021/03/21 12:15:55;;;;;;;39.42;24.50;;;;;;;;;;5052135;28;20104;-68
2021/03/21 12:18:23;;;;;;;47.72;27.90;;;;;;;;;;5052563;28;20339;-68
2021/03/21 12:20:50;;;;;;;42.58;24.38;;;;;;;;;;5050966;28;20488;-68
2021/03/21 12:23:30;;;;;;;47.72;31.50;;;;;;;;;;5051760;28;20388;-68
2021/03/21 12:26:06;;;;;;;44.05;26.27;;;;;;;;;;5050946;28;20099;-68
2021/03/21 12:28:34;;;;;;;45.25;27.88;;;;;;;;;;5052113;28;20542;-70
2021/03/21 12:31:02;;;;;;;36.95;21.98;;;;;;;;;;5051858;28;20025;-69
2021/03/21 12:33:28;;;;;;;29.02;17.13;;;;;;;;;;5050626;28;20040;-69
2021/03/21 12:35:56;;;;;;;21.55;13.30;;;;;;;;;;5052050;28;20048;-69
2021/03/21 12:38:25;;;;;;;23.92;12.98;;;;;;;;;;5051630;28;20025;-69
2021/03/21 12:40:52;;;;;;;20.20;12.05;;;;;;;;;;5051983;28;20381;-68
2021/03/21 12:43:20;;;;;;;19.73;11.75;;;;;;;;;;5050602;28;20028;-69
2021/03/21 12:46:00;;;;;;;30.58;18.05;;;;;;;;;;5051474;28;20090;-68
2021/03/21 12:48:26;;;;;;;31.08;18.73;;;;;;;;;;5051888;28;20017;-69
2021/03/21 12:50:53;;;;;;;33.50;19.52;;;;;;;;;;5051694;28;20359;-68
2021/03/21 12:53:21;;;;;;;19.67;12.85;;;;;;;;;;5051378;28;20044;-69
2021/03/21 12:55:48;;;;;;;25.83;14.32;;;;;;;;;;5051654;28;20508;-69
2021/03/21 12:58:15;;;;;;;26.08;14.88;;;;;;;;;;5051375;28;20500;-68
2021/03/21 13:00:42;;;;;;;15.77;9.93;;;;;;;;;;5050422;28;20021;-68
2021/03/21 13:03:10;;;;;;;17.10;11.75;;;;;;;;;;5051858;28;20021;-69
2021/03/21 13:05:37;;;;;;;24.15;14.82;;;;;;;;;;5051408;28;20072;-68
2021/03/21 13:08:04;;;;;;;24.63;14.05;;;;;;;;;;5051694;28;20048;-68
2021/03/21 13:10:34;;;;;;;25.15;15.10;;;;;;;;;;5051644;28;20021;-68
2021/03/21 13:13:01;;;;;;;56.38;26.27;;;;;;;;;;5053480;28;20485;-69
2021/03/21 13:15:27;;;;;;;45.83;26.90;;;;;;;;;;5055309;28;20072;-69
2021/03/21 13:17:54;;;;;;;34.65;18.90;;;;;;;;;;5055223;28;20022;-69
2021/03/21 13:20:21;;;;;;;43.55;27.02;;;;;;;;;;5053737;28;20029;-69
2021/03/21 13:22:47;;;;;;;44.05;25.92;;;;;;;;;;5055108;28;20082;-68
2021/03/21 13:25:22;;;;;;;44.13;24.33;;;;;;;;;;5055322;28;20032;-69
2021/03/21 13:27:48;;;;;;;49.53;25.60;;;;;;;;;;5054724;28;20444;-69
2021/03/21 13:30:16;;;;;;;58.58;29.48;;;;;;;;;;5055011;28;20017;-69
2021/03/21 13:32:42;;;;;;;59.80;32.33;;;;;;;;;;5054889;28;20083;-68
2021/03/21 13:35:08;;;;;;;56.25;28.80;;;;;;;;;;5053188;28;20531;-69
2021/03/21 13:37:34;;;;;;;42.65;25.02;;;;;;;;;;5054823;28;20021;-69
2021/03/21 13:40:03;;;;;;;31.67;16.85;;;;;;;;;;5054836;28;20025;-69
2021/03/21 13:42:29;;;;;;;30.23;19.35;;;;;;;;;;5054372;28;20013;-68
2021/03/21 13:44:56;;;;;;;32.65;19.88;;;;;;;;;;5055142;28;20096;-69
2021/03/21 13:47:22;;;;;;;27.83;18.58;;;;;;;;;;5053508;28;20022;-68
2021/03/21 13:49:49;;;;;;;17.35;11.52;;;;;;;;;;5055123;28;20063;-68
2021/03/21 13:52:15;;;;;;;25.00;15.68;;;;;;;;;;5054287;28;20382;-69
2021/03/21 13:54:41;;;;;;;11.57;7.25;;;;;;;;;;5052731;28;20033;-69
2021/03/21 13:57:07;;;;;;;9.18;5.40;;;;;;;;;;5053198;28;20490;-69
2021/03/21 13:59:34;;;;;;;22.35;12.23;;;;;;;;;;5053108;28;20058;-69
2021/03/21 14:02:00;;;;;;;25.52;14.95;;;;;;;;;;5052688;28;20457;-67
2021/03/21 14:04:26;;;;;;;167.45;97.70;;;;;;;;;;5053035;28;20104;-68
2021/03/21 14:06:52;;;;;;;133.82;81.68;;;;;;;;;;5054420;28;20035;-68
2021/03/21 14:09:19;;;;;;;155.05;90.78;;;;;;;;;;5053950;28;20484;-68
2021/03/21 14:11:45;;;;;;;103.85;66.07;;;;;;;;;;5054514;28;20029;-68
2021/03/21 14:14:11;;;;;;;138.90;82.47;;;;;;;;;;5054042;28;20032;-68
2021/03/21 14:16:37;;;;;;;125.70;76.60;;;;;;;;;;5053660;28;20017;-68
2021/03/21 14:19:04;;;;;;;108.50;72.28;;;;;;;;;;5054085;28;20104;-69
2021/03/21 14:21:30;;;;;;;130.88;75.47;;;;;;;;;;5052683;28;20389;-68
2021/03/21 14:23:56;;;;;;;149.00;90.85;;;;;;;;;;5053382;28;20086;-68
2021/03/21 14:26:22;;;;;;;107.90;67.90;;;;;;;;;;5053952;28;20048;-69
2021/03/21 14:28:48;;;;;;;104.88;65.32;;;;;;;;;;5053950;28;20040;-68
2021/03/21 14:31:15;;;;;;;107.28;71.88;;;;;;;;;;5053714;28;20021;-69
2021/03/21 14:33:41;;;;;;;139.73;79.47;;;;;;;;;;5053792;28;20040;-69
2021/03/21 14:36:08;;;;;;;103.72;61.22;;;;;;;;;;5053740;28;20036;-68
2021/03/21 14:38:35;;;;;;;75.35;47.88;;;;;;;;;;5052185;28;20623;-68
2021/03/21 14:41:01;;;;;;;74.45;45.20;;;;;;;;;;5052446;28;20025;-68
2021/03/21 14:43:27;;;;;;;65.22;40.33;;;;;;;;;;5053936;28;20032;-68
2021/03/21 14:45:54;;;;;;;51.47;32.75;;;;;;;;;;5052056;28;20535;-68
2021/03/21 14:48:20;;;;;;;61.10;41.47;;;;;;;;;;5053689;28;20424;-68
2021/03/21 14:50:47;;;;;;;36.20;23.60;;;;;;;;;;5052985;28;20025;-68
2021/03/21 14:53:14;;;;;;;27.45;17.58;;;;;;;;;;5053498;28;20100;-68
2021/03/21 14:55:43;;;;;;;24.48;16.52;;;;;;;;;;5053522;28;20013;-68